Latest Weather Observations for Cape Jaffa

IDS60801

Issued at 2:01 am CST Friday 1 July 2016 (issued every 30 minutes, with the page automatically refreshed every 10 minutes)

About weather observations | Map of weather stations | Latest weather observations for SA | Other Formats
Station Details ID: 026095 Name: THE LIMESTONE Lat: -36.97 Lon: 139.72 Height: 17.0 m
Data from the previous 72 hours. | See also: Recent months at Cape Jaffa
Date/Time
CST
Temp
°C
App
Temp
°C
Dew
Point
°C
Rel
Hum
%
Delta-T
°C
Wind Press
QNH
hPa
Press
MSL
hPa
Rain since
9am
mm
Dir  Spd
km/h
Gust
km/h
Spd
kts
Gust
kts
01/02:00am 10.7 3.8 2.5 57 3.5 SW 28 35 15 19 1018.8 1018.8 2.8
01/01:30am 11.2 4.1 3.7 60 3.3 SW 30 41 16 22 1018.4 1018.4 2.8
01/01:00am 11.1 3.8 2.7 56 3.6 SW 30 41 16 22 1018.1 1018.1 2.8
01/12:30am 11.1 4.8 3.6 60 3.3 SW 26 33 14 18 1018.0 1018.0 2.8
01/12:00am 11.3 4.2 3.3 58 3.5 SW 30 39 16 21 1017.6 1017.6 2.8
 
Date/Time
CST
Temp
°C
App
Temp
°C
Dew
Point
°C
Rel
Hum
%
Delta-T
°C
Wind Press
QNH
hPa
Press
MSL
hPa
Rain since
9am
mm
Dir  Spd
km/h
Gust
km/h
Spd
kts
Gust
kts
30/11:30pm 11.3 4.1 2.9 56 3.6 SW 30 43 16 23 1017.3 1017.3 2.8
30/11:00pm 11.0 3.2 3.1 58 3.4 SW 33 46 18 25 1016.9 1016.9 2.8
30/10:30pm 11.3 3.7 3.1 57 3.6 SW 32 44 17 24 1016.6 1016.6 2.8
30/10:00pm 11.1 3.4 3.2 58 3.5 SW 33 46 18 25 1016.3 1016.3 2.8
30/09:30pm 11.1 3.6 3.4 59 3.4 SW 32 41 17 22 1015.8 1015.8 2.8
30/09:00pm 11.2 3.3 4.4 63 3.1 SW 35 50 19 27 1015.5 1015.5 2.8
30/08:30pm 10.8 2.6 4.9 67 2.7 WSW 37 50 20 27 1015.2 1015.2 2.8
30/08:03pm 11.0 2.7 6.2 72 2.2 WSW 39 59 21 32 1014.8 1014.8 2.8
30/08:00pm 10.6 2.3 6.0 73 2.1 WSW 39 52 21 28 1014.8 1014.8 2.8
30/07:30pm 10.6 0.7 4.9 68 2.6 SW 46 69 25 37 1014.2 1014.2 2.8
30/07:03pm 9.9 0.9 6.4 79 1.6 WSW 43 61 23 33 1013.9 1013.9 2.8
30/07:00pm 9.9 0.7 6.3 78 1.7 WSW 44 61 24 33 1013.7 1013.7 2.8
30/06:45pm 9.6 -0.4 6.1 79 1.6 WSW 48 67 26 36 1013.6 1013.6 2.6
30/06:30pm 11.1 1.8 5.2 67 2.7 WSW 43 57 23 31 1012.9 1012.9 2.6
30/06:08pm 11.2 1.1 5.5 68 2.6 WSW 48 76 26 41 1012.2 1012.2 2.4
30/06:00pm 11.1 1.8 4.8 65 2.9 WSW 43 57 23 31 1012.2 1012.2 2.4
30/05:30pm 10.9 0.5 4.4 64 2.9 WSW 48 67 26 36 1011.8 1011.8 2.4
30/05:01pm 11.5 1.6 3.0 56 3.7 WSW 44 63 24 34 1010.7 1010.7 2.4
30/05:00pm 11.6 1.8 3.1 56 3.7 WSW 44 63 24 34 1010.6 1010.6 2.4
30/04:49pm 11.3 1.7 4.5 63 3.1 WSW 44 63 24 34 1010.5 1010.5 2.4
30/04:30pm 11.4 1.8 4.2 61 3.2 WSW 44 56 24 30 1010.2 1010.2 2.4
30/04:03pm 10.2 0.1 5.8 74 2.0 WSW 48 69 26 37 1010.2 1010.2 2.4
30/04:00pm 10.1 -0.8 5.7 74 2.0 WSW 52 69 28 37 1010.1 1010.1 2.4
30/03:52pm 11.1 2.3 5.4 68 2.6 WSW 41 69 22 37 1009.9 1009.9 2.4
30/03:30pm 10.0 -0.2 5.2 72 2.2 WSW 48 61 26 33 1009.9 1009.9 2.4
30/03:14pm 9.1 -0.5 4.3 72 2.1 WSW 44 70 24 38 1009.5 1009.5 2.2
30/03:10pm 8.8 0.4 1.5 60 3.0 WSW 35 70 19 38 1009.4 1009.4 1.8
30/03:08pm 11.4 5.4 7.1 75 2.1 WSW 28 50 15 27 1009.6 1009.6 1.0
30/03:00pm 10.6 4.5 6.7 77 1.8 WSW 28 37 15 20 1009.3 1009.3 1.0
30/02:39pm 10.6 1.3 5.2 69 2.5 WSW 43 57 23 31 1009.2 1009.2 1.0
30/02:30pm 11.2 1.9 5.1 66 2.8 W 43 57 23 31 1009.1 1009.1 1.0
30/02:00pm 10.4 1.2 5.6 72 2.2 W 43 61 23 33 1008.6 1008.6 1.0
30/01:33pm 12.0 3.1 5.0 62 3.2 WSW 41 63 22 34 1008.4 1008.4 1.0
30/01:30pm 12.1 3.9 6.4 68 2.7 WSW 39 50 21 27 1008.6 1008.6 1.0
30/01:00pm 10.7 1.6 6.8 77 1.8 WSW 44 72 24 39 1008.5 1008.5 0.4
30/12:33pm 13.1 4.8 6.0 62 3.4 W 39 59 21 32 1008.0 1008.0 0.2
30/12:30pm 12.3 3.9 5.7 64 3.1 WSW 39 50 21 27 1008.1 1008.1 0.2
30/12:14pm 12.8 2.3 5.5 61 3.4 W 50 72 27 39 1007.9 1007.9 0.2
30/12:00pm 12.9 2.1 4.3 56 3.9 W 50 65 27 35 1007.8 1007.8 0.2
30/11:33am 12.9 2.4 5.6 61 3.4 W 50 69 27 37 1007.7 1007.7 0.2
30/11:30am 12.9 2.8 5.6 61 3.4 W 48 59 26 32 1007.9 1007.9 0.2
30/11:00am 11.4 2.2 5.5 67 2.7 W 43 61 23 33 1007.9 1007.9 0.2
30/10:53am 11.1 2.7 5.8 70 2.5 W 39 61 21 33 1008.2 1008.2 0.2
30/10:30am 10.8 3.3 6.4 74 2.1 W 35 48 19 26 1008.1 1008.1 0.2
30/10:24am 10.3 1.7 6.3 76 1.9 W 41 65 22 35 1008.2 1008.2 0.2
30/10:03am 9.4 -1.9 7.0 85 1.1 WSW 56 74 30 40 1008.2 1008.2 0.0
30/10:00am 9.4 -2.2 6.5 82 1.3 W 57 74 31 40 1008.0 1008.0 0.0
30/09:58am 10.0 -1.4 6.5 79 1.6 W 56 74 30 40 1007.7 1007.7 0.0
30/09:40am 11.3 2.6 7.6 78 1.8 W 43 63 23 34 1007.6 1007.6 0.0
30/09:30am 10.7 2.0 8.3 85 1.2 WSW 44 59 24 32 1007.4 1007.4 0.0
30/09:00am 11.4 2.1 9.1 86 1.2 W 48 65 26 35 1007.3 1007.3 1.8
30/08:30am 11.5 0.4 8.2 80 1.6 W 56 76 30 41 1006.8 1006.8 1.4
30/08:27am 11.6 0.9 8.1 79 1.7 W 54 76 29 41 1006.8 1006.8 1.4
30/08:22am 12.4 3.4 7.3 71 2.5 WNW 44 72 24 39 1006.5 1006.5 1.4
30/08:19am 14.1 6.7 8.5 69 2.8 WNW 37 57 20 31 1006.4 1006.4 1.4
30/08:00am 13.7 6.8 8.7 72 2.5 WNW 35 43 19 23 1006.0 1006.0 1.4
30/07:30am 13.1 7.9 10.3 83 1.5 WNW 28 39 15 21 1005.9 1005.9 1.4
30/07:09am 12.9 6.8 10.6 86 1.2 NW 33 54 18 29 1005.5 1005.5 1.4
30/07:00am 13.1 5.6 11.0 87 1.1 NNW 41 50 22 27 1005.5 1005.5 1.2
30/06:30am 13.0 5.5 10.7 86 1.2 NNW 41 50 22 27 1005.7 1005.7 1.2
30/06:00am 12.7 5.1 10.4 86 1.2 NNW 41 54 22 29 1005.8 1005.8 1.0
30/05:30am 12.9 4.8 10.1 83 1.4 NNW 43 57 23 31 1006.1 1006.1 0.8
30/05:00am 12.7 4.5 9.7 82 1.5 NNW 43 54 23 29 1006.4 1006.4 0.8
30/04:30am 12.5 4.0 9.3 81 1.6 NNW 44 59 24 32 1006.7 1006.7 0.8
30/04:00am 12.6 3.7 9.2 80 1.7 NNW 46 65 25 35 1007.2 1007.2 0.8
30/03:39am 12.4 4.1 9.2 81 1.6 NNW 43 63 23 34 1007.4 1007.4 0.8
30/03:30am 12.2 3.8 9.0 81 1.6 N 43 54 23 29 1007.5 1007.5 0.8
30/03:00am 11.9 3.5 8.9 82 1.5 N 43 57 23 31 1008.2 1008.2 0.8
30/02:30am 11.9 3.3 8.7 81 1.6 N 44 63 24 34 1008.6 1008.6 0.8
30/02:26am 11.9 2.8 8.6 80 1.6 N 46 65 25 35 1008.7 1008.7 0.8
30/02:00am 11.9 3.2 8.4 79 1.7 N 44 59 24 32 1009.0 1009.0 0.8
30/01:30am 11.6 2.1 8.3 80 1.6 N 48 69 26 37 1009.5 1009.5 0.6
30/01:16am 11.6 3.9 8.6 82 1.5 N 39 57 21 31 1009.9 1009.9 0.2
30/01:00am 11.9 4.6 8.6 80 1.6 N 37 50 20 27 1010.1 1010.1 0.2
30/12:30am 11.6 4.2 8.5 81 1.5 N 37 48 20 26 1010.8 1010.8 0.0
30/12:00am 12.2 3.8 7.5 73 2.3 N 41 52 22 28 1011.1 1011.1 0.0
 
Date/Time
CST
Temp
°C
App
Temp
°C
Dew
Point
°C
Rel
Hum
%
Delta-T
°C
Wind Press
QNH
hPa
Press
MSL
hPa
Rain since
9am
mm
Dir  Spd
km/h
Gust
km/h
Spd
kts
Gust
kts
29/11:30pm 12.2 3.4 7.1 71 2.5 N 43 54 23 29 1011.6 1011.6 0.0
29/11:25pm 12.2 3.4 7.3 72 2.4 N 43 61 23 33 1011.7 1011.7 0.0
29/11:00pm 12.1 2.6 6.8 70 2.5 N 46 59 25 32 1011.7 1011.7 0.0
29/10:30pm 12.1 2.6 6.8 70 2.5 N 46 59 25 32 1012.2 1012.2 0.0
29/10:10pm 11.8 2.7 6.7 71 2.4 N 44 63 24 34 1012.4 1012.4 0.0
29/10:00pm 11.9 2.4 6.6 70 2.5 N 46 61 25 33 1012.6 1012.6 0.0
29/09:30pm 12.1 3.0 6.6 69 2.6 N 44 59 24 32 1013.5 1013.5 0.0
29/09:03pm 12.1 3.5 6.6 69 2.6 N 41 59 22 32 1013.9 1013.9 0.0
29/09:00pm 12.1 3.1 6.6 69 2.6 N 43 59 23 32 1014.0 1014.0 0.0
29/08:30pm 12.1 2.9 6.4 68 2.7 N 44 54 24 29 1014.1 1014.1 0.0
29/08:00pm 12.1 3.1 6.2 67 2.8 N 43 59 23 32 1014.3 1014.3 0.0
29/07:34pm 12.2 2.3 6.5 68 2.7 N 48 67 26 36 1014.7 1014.7 0.0
29/07:30pm 12.4 2.0 6.2 66 2.9 N 50 67 27 36 1014.6 1014.6 0.0
29/07:23pm 12.3 3.2 6.6 68 2.7 N 44 63 24 34 1014.7 1014.7 0.0
29/07:00pm 12.2 2.7 6.7 69 2.6 N 46 59 25 32 1014.8 1014.8 0.0
29/06:40pm 12.5 3.3 6.3 66 2.9 N 44 63 24 34 1014.8 1014.8 0.0
29/06:30pm 12.4 2.9 6.5 67 2.8 N 46 61 25 33 1015.0 1015.0 0.0
29/06:00pm 12.5 2.9 6.3 66 2.9 N 46 59 25 32 1015.2 1015.2 0.0
29/05:30pm 12.6 1.6 5.1 60 3.5 N 52 67 28 36 1015.2 1015.2 0.0
29/05:00pm 12.6 2.4 5.3 61 3.4 N 48 67 26 36 1015.8 1015.8 0.0
29/04:59pm 12.6 2.4 5.3 61 3.4 N 48 67 26 36 1015.8 1015.8 0.0
29/04:30pm 12.6 2.9 5.8 63 3.2 N 46 59 25 32 1016.1 1016.1 0.0
29/04:00pm 12.5 2.8 5.7 63 3.2 N 46 61 25 33 1016.2 1016.2 0.0
29/03:30pm 12.6 3.5 6.6 67 2.9 N 44 59 24 32 1016.4 1016.4 0.0
29/03:22pm 12.8 4.6 6.6 66 3.0 N 39 59 21 32 1016.4 1016.4 0.0
29/03:00pm 12.7 4.6 7.2 69 2.7 N 39 48 21 26 1016.7 1016.7 0.0
29/02:30pm 12.8 4.3 6.8 67 2.9 N 41 50 22 27 1017.1 1017.1 0.0
29/02:00pm 12.9 4.4 6.9 67 2.9 N 41 50 22 27 1017.6 1017.6 0.0
29/01:30pm 13.2 5.6 7.4 68 2.8 N 37 54 20 29 1018.2 1018.2 0.0
29/01:00pm 13.0 6.2 7.9 71 2.5 N 33 43 18 23 1018.9 1018.9 0.0
29/12:30pm 12.8 6.1 8.3 74 2.2 N 33 43 18 23 1019.9 1019.9 0.0
29/12:00pm 12.4 5.8 7.9 74 2.2 N 32 41 17 22 1020.6 1020.6 0.0
29/11:30am 12.5 6.8 8.2 75 2.1 N 28 37 15 20 1021.5 1021.5 0.0
29/11:00am 11.8 5.2 7.9 77 1.9 N 32 41 17 22 1022.1 1022.1 0.0
29/10:30am 11.7 6.0 8.2 79 1.7 N 28 35 15 19 1022.6 1022.6 0.0
29/10:00am 11.2 5.0 7.7 79 1.7 N 30 37 16 20 1023.0 1023.0 0.0
29/09:30am 10.9 4.6 7.6 80 1.6 N 30 37 16 20 1023.0 1023.0 0.0
29/09:00am 10.8 5.8 7.9 82 1.4 NNE 24 30 13 16 1023.4 1023.4 13.0
29/08:30am 10.6 6.0 8.0 84 1.3 NNE 22 28 12 15 1023.6 1023.6 13.0
29/08:00am 9.9 5.1 7.3 84 1.2 NNE 22 30 12 16 1023.6 1023.6 13.0
29/07:30am 9.7 5.3 7.5 86 1.0 NNE 20 24 11 13 1023.7 1023.7 13.0
29/07:00am 10.1 5.8 7.9 86 1.1 NNE 20 28 11 15 1023.7 1023.7 13.0
29/06:30am 10.2 6.2 8.1 87 1.0 N 19 26 10 14 1023.7 1023.7 13.0
29/06:00am 10.1 5.9 8.2 88 0.9 NNE 20 26 11 14 1023.7 1023.7 13.0
29/05:30am 10.3 6.8 8.6 89 0.8 NNE 17 22 9 12 1023.6 1023.6 13.0
29/05:00am 10.4 6.8 8.3 87 1.0 NNE 17 20 9 11 1023.6 1023.6 13.0
29/04:30am 11.4 7.5 8.6 83 1.4 N 19 24 10 13 1023.5 1023.5 13.0
29/04:00am 11.6 7.8 9.0 84 1.3 N 19 24 10 13 1023.5 1023.5 13.0
29/03:30am 11.5 7.5 8.9 84 1.3 N 20 24 11 13 1023.6 1023.6 13.0
29/03:00am 11.5 8.2 9.4 87 1.1 N 17 22 9 12 1023.9 1023.9 13.0
29/02:30am 11.3 7.5 9.0 86 1.1 N 19 24 10 13 1024.1 1024.1 13.0
29/02:00am 11.0 7.7 9.4 90 0.8 N 17 19 9 10 1024.1 1024.1 13.0
29/01:30am 10.8 8.2 9.2 90 0.8 N 13 15 7 8 1024.2 1024.2 13.0
29/01:00am 10.4 8.0 8.8 90 0.8 NNE 11 15 6 8 1024.4 1024.4 13.0
29/12:30am 10.8 8.1 9.1 89 0.8 N 13 15 7 8 1024.7 1024.7 13.0
29/12:00am 11.6 10.2 9.7 88 1.0 N 7 9 4 5 1024.9 1024.9 13.0
 
Date/Time
CST
Temp
°C
App
Temp
°C
Dew
Point
°C
Rel
Hum
%
Delta-T
°C
Wind Press
QNH
hPa
Press
MSL
hPa
Rain since
9am
mm
Dir  Spd
km/h
Gust
km/h
Spd
kts
Gust
kts
28/11:30pm 11.7 10.3 9.4 86 1.2 NNW 7 9 4 5 1025.1 1025.1 13.0
28/11:00pm 11.9 9.7 9.3 84 1.3 NW 11 13 6 7 1025.2 1025.2 13.0
28/10:30pm 12.0 8.7 9.4 84 1.3 WNW 17 20 9 11 1025.2 1025.2 13.0
28/10:00pm 12.1 8.6 10.2 88 1.0 NW 19 26 10 14 1025.5 1025.5 13.0
28/09:30pm 11.6 7.4 9.7 88 1.0 WNW 22 32 12 17 1025.3 1025.3 13.0
28/09:00pm 11.8 8.8 10.5 92 0.7 WNW 17 24 9 13 1025.2 1025.2 12.8
28/08:30pm 12.4 9.5 11.0 91 0.7 NW 17 35 9 19 1025.1 1025.1 9.6
28/08:00pm 12.1 7.7 10.3 89 0.9 NW 24 39 13 21 1025.1 1025.1 7.8
28/07:30pm 12.3 8.9 10.4 88 1.0 NW 19 26 10 14 1024.9 1024.9 7.0
28/07:00pm 12.8 9.9 10.9 88 1.0 WNW 17 32 9 17 1024.7 1024.7 4.8
28/06:30pm 13.5 9.1 10.3 81 1.7 NW 24 39 13 21 1024.3 1024.3 3.4
28/06:00pm 13.5 8.7 10.3 81 1.7 NNW 26 35 14 19 1024.1 1024.1 3.4
28/05:30pm 13.4 9.4 10.6 83 1.5 NW 22 30 12 16 1024.0 1024.0 3.4
28/05:00pm 13.5 10.0 11.0 85 1.3 NW 20 28 11 15 1023.9 1023.9 3.4
28/04:30pm 13.1 10.7 11.3 89 0.9 WNW 15 26 8 14 1023.9 1023.9 3.4
28/04:00pm 13.4 9.6 11.3 87 1.1 NW 22 32 12 17 1023.9 1023.9 1.0
28/03:30pm 13.6 9.0 11.1 85 1.3 NNW 26 33 14 18 1023.5 1023.5 0.6
28/03:00pm 15.3 10.8 11.5 78 2.0 NW 26 35 14 19 1023.5 1023.5 0.6
28/02:30pm 15.0 10.9 11.4 79 1.9 NW 24 30 13 16 1023.5 1023.5 0.6
28/02:00pm 15.3 11.3 11.7 79 1.9 NW 24 32 13 17 1023.7 1023.7 0.6
28/01:30pm 15.4 11.5 12.2 81 1.7 NW 24 32 13 17 1023.7 1023.7 0.6
28/01:00pm 15.0 11.2 11.2 78 2.0 NW 22 30 12 16 1023.9 1023.9 0.6
28/12:30pm 15.3 11.4 12.2 82 1.7 NW 24 30 13 16 1024.0 1024.0 0.4
28/12:00pm 15.6 12.2 12.4 81 1.7 NW 22 28 12 15 1024.1 1024.1 0.4
28/11:30am 15.9 12.6 12.8 82 1.7 NW 22 30 12 16 1024.2 1024.2 0.4
28/11:00am 15.5 12.0 12.3 81 1.7 NW 22 33 12 18 1024.4 1024.4 0.4
28/10:30am 15.2 12.0 12.0 81 1.7 NW 20 30 11 16 1024.5 1024.5 0.4
28/10:00am 13.7 9.6 10.1 79 1.9 WNW 22 33 12 18 1024.4 1024.4 0.4
28/09:30am 14.6 11.2 12.5 87 1.1 NW 22 32 12 17 1024.1 1024.1 0.4
28/09:00am 14.6 11.1 12.1 85 1.3 NW 22 30 12 16 1023.9 1023.9 1.2
28/08:30am 13.9 10.6 11.6 86 1.2 NW 20 28 11 15 1023.5 1023.5 1.2
28/08:00am 12.7 9.8 11.1 90 0.8 NNW 17 20 9 11 1023.1 1023.1 1.2
28/07:30am 12.5 9.1 10.4 87 1.1 NW 19 24 10 13 1022.9 1022.9 1.2
28/07:00am 12.8 10.6 10.9 88 1.0 NNW 13 19 7 10 1022.6 1022.6 1.0
28/06:30am 12.9 9.9 10.8 87 1.1 NW 17 22 9 12 1022.2 1022.2 0.6
28/06:00am 13.2 10.3 10.9 86 1.2 NW 17 24 9 13 1021.9 1021.9 0.6
28/05:30am 12.8 10.3 10.9 88 1.0 NW 15 20 8 11 1021.7 1021.7 0.6
28/05:00am 12.6 9.8 10.0 84 1.3 NW 15 20 8 11 1021.4 1021.4 0.6
28/04:30am 12.5 9.3 10.0 85 1.3 NW 17 24 9 13 1021.1 1021.1 0.6
28/04:00am 12.7 10.0 10.4 86 1.2 NW 15 20 8 11 1021.0 1021.0 0.6
28/03:30am 12.3 9.1 10.0 86 1.2 NW 17 26 9 14 1021.0 1021.0 0.6
28/03:00am 12.6 8.9 10.3 86 1.2 NW 20 28 11 15 1021.2 1021.2 0.6
28/02:30am 12.6 8.6 10.5 87 1.1 NW 22 30 12 16 1021.4 1021.4 0.6

Other Formats:

Comma delimited format used in spreadsheet applications
http://www.bom.gov.au/fwo/IDS60801/IDS60801.94813.axf

JavaScript Object Notation format (JSON) in row-major order
http://www.bom.gov.au/fwo/IDS60801/IDS60801.94813.json